createdAt,value
2018-07-17T11:40:32.260Z,981.28
2018-07-17T11:41:23.956Z,981.34
2018-07-17T11:42:24.889Z,981.21
2018-07-17T11:43:24.067Z,981.79
2018-07-17T11:44:23.977Z,981.38
2018-07-17T11:45:23.978Z,981.58
2018-07-17T11:46:23.977Z,981.34
2018-07-17T11:47:23.963Z,981.84
2018-07-17T11:48:23.998Z,981.82
2018-07-17T11:49:23.977Z,981.9
2018-07-17T11:50:23.985Z,981.86
2018-07-17T11:51:23.990Z,981.95
2018-07-17T11:52:23.995Z,981.74
2018-07-17T11:53:24.029Z,981.93
2018-07-17T11:54:23.992Z,982.05
2018-07-17T11:55:23.970Z,982.1
2018-07-17T11:56:23.970Z,982.13
2018-07-17T11:57:24.003Z,982.05
2018-07-17T11:58:24.011Z,982.36
2018-07-17T11:59:24.166Z,982.23
2018-07-17T12:00:23.990Z,982.34
2018-07-17T12:01:24.065Z,982.31
2018-07-17T12:02:23.984Z,982.98
2018-07-17T12:03:24.014Z,982.41
2018-07-17T12:04:24.001Z,982.87
2018-07-17T12:05:24.044Z,982.78
2018-07-17T12:06:23.987Z,983.05
2018-07-17T12:07:23.998Z,982.78
2018-07-17T12:08:23.998Z,983.08
2018-07-17T12:09:24.033Z,982.87
2018-07-17T12:10:24.007Z,982.97
2018-07-17T12:11:24.023Z,983.05
2018-07-17T12:12:24.004Z,983.16
2018-07-17T12:13:24.026Z,983.08
2018-07-17T12:14:24.043Z,983.26
2018-07-17T12:15:24.515Z,983.34
2018-07-17T12:16:24.618Z,983.33
2018-07-17T12:17:24.019Z,983.21
2018-07-17T12:18:24.059Z,983.06
2018-07-17T12:19:24.025Z,983.54
2018-07-17T12:20:24.162Z,983.49
2018-07-17T12:21:24.038Z,983.68
2018-07-17T12:22:24.040Z,983.28
2018-07-17T12:23:24.071Z,983.37
2018-07-17T12:24:24.053Z,983.19
2018-07-17T12:25:24.031Z,983.23
2018-07-17T12:26:24.056Z,983.41
2018-07-17T12:27:24.019Z,983.43
2018-07-17T12:28:24.032Z,983.32
2018-07-17T12:29:24.061Z,983.12
2018-07-17T12:30:24.086Z,983.4
2018-07-17T12:31:24.052Z,983.18
2018-07-17T12:32:24.044Z,983.08
2018-07-17T12:33:24.107Z,983.32
2018-07-17T12:34:24.067Z,983.41
2018-07-17T12:35:24.047Z,983.31
2018-07-17T12:36:24.155Z,983.21
2018-07-17T12:37:24.061Z,983.34
2018-07-17T12:38:24.100Z,983.51
2018-07-17T12:39:24.077Z,983.53
2018-07-17T12:40:24.066Z,983.47
2018-07-17T12:41:24.070Z,983.3
2018-07-17T12:42:24.067Z,983.27
2018-07-17T12:43:24.067Z,983.26
2018-07-17T12:44:24.132Z,983.2
2018-07-17T12:45:24.058Z,983.23
2018-07-17T12:46:24.090Z,983.34
2018-07-17T12:47:24.104Z,982.96
2018-07-17T12:48:24.073Z,983.04
2018-07-17T12:49:24.055Z,983.12
2018-07-17T12:50:24.069Z,983.19
2018-07-17T12:51:29.751Z,983.61
2018-07-17T12:52:24.101Z,982.98
2018-07-17T12:53:24.111Z,983.1
2018-07-17T12:54:24.086Z,983.34
2018-07-17T12:55:24.151Z,983.21
2018-07-17T12:56:24.214Z,983.11
2018-07-17T12:57:24.093Z,983.19
2018-07-17T12:58:24.148Z,983.05
2018-07-17T12:59:24.134Z,983.64
2018-07-17T13:00:24.119Z,983.1
2018-07-17T13:01:24.115Z,982.77
2018-07-17T13:02:24.098Z,983.14
2018-07-17T13:03:24.105Z,982.9
2018-07-17T13:04:24.115Z,983.27
2018-07-17T13:05:24.108Z,982.88
2018-07-17T13:06:24.149Z,982.98
2018-07-17T13:07:24.180Z,983.19
2018-07-17T13:08:24.116Z,982.84
2018-07-17T13:09:24.228Z,982.8
2018-07-17T13:10:24.102Z,982.79
2018-07-17T13:11:24.105Z,982.99
2018-07-17T13:12:24.179Z,982.78
2018-07-17T13:13:24.148Z,982.75
2018-07-17T13:14:24.128Z,982.89
2018-07-17T13:15:24.129Z,983.08
2018-07-17T13:16:26.497Z,982.89
2018-07-17T13:17:24.232Z,982.69
2018-07-17T13:18:24.144Z,982.9
2018-07-17T13:19:24.130Z,983.11
2018-07-17T13:20:24.161Z,982.78
2018-07-17T13:21:24.142Z,982.73
2018-07-17T13:22:24.140Z,982.89
2018-07-17T13:23:24.172Z,982.89
2018-07-17T13:24:24.171Z,982.8
2018-07-17T13:25:24.197Z,982.45
2018-07-17T13:26:24.150Z,982.59
2018-07-17T13:27:24.196Z,982.71
2018-07-17T13:28:24.155Z,982.55
2018-07-17T13:29:24.193Z,982.64
2018-07-17T13:30:24.454Z,982.81
2018-07-17T13:31:24.161Z,982.38
2018-07-17T13:32:24.167Z,982.52
2018-07-17T13:33:24.177Z,982.31
2018-07-17T13:34:24.200Z,982.58
2018-07-17T13:35:24.184Z,982.34
2018-07-17T13:36:24.158Z,982.45
2018-07-17T13:37:24.174Z,982.28
2018-07-17T13:38:24.193Z,982.24
2018-07-17T13:39:24.382Z,982.31
2018-07-17T13:40:24.191Z,981.92
2018-07-17T13:41:24.189Z,982.06
2018-07-17T13:42:24.204Z,981.82
2018-07-17T13:43:24.175Z,981.85
2018-07-17T13:44:24.166Z,981.63
2018-07-17T13:45:24.174Z,981.73
2018-07-17T13:46:24.195Z,981.68
2018-07-17T13:47:24.187Z,981.54
2018-07-17T13:48:24.398Z,981.46
2018-07-17T13:49:24.177Z,981.36
2018-07-17T13:50:24.201Z,981.54
2018-07-17T13:51:24.470Z,981.54
2018-07-17T13:52:24.200Z,981.36
2018-07-17T13:53:24.226Z,981.24
2018-07-17T13:54:24.196Z,981.25
2018-07-17T13:55:24.210Z,981.24
2018-07-17T13:56:24.330Z,981.36
2018-07-17T13:57:24.225Z,981.15
2018-07-17T13:58:24.222Z,981.16
2018-07-17T13:59:24.199Z,980.97
2018-07-17T14:00:24.197Z,981.14
2018-07-17T14:01:24.229Z,980.73
2018-07-17T14:02:24.227Z,980.83
2018-07-17T14:03:24.236Z,980.66
2018-07-17T14:04:24.243Z,980.75
2018-07-17T14:05:24.255Z,980.61
2018-07-17T14:06:24.229Z,980.77
2018-07-17T14:07:24.215Z,980.78
2018-07-17T14:08:24.222Z,980.65
2018-07-17T14:09:24.277Z,980.39
2018-07-17T14:10:24.223Z,980.66
2018-07-17T14:11:24.259Z,980.54
2018-07-17T14:12:24.291Z,980.01
2018-07-17T14:13:24.228Z,980.17
2018-07-17T14:14:24.226Z,980.3
2018-07-17T14:15:24.244Z,980.59
2018-07-17T14:16:24.235Z,980.51
2018-07-17T14:17:24.288Z,980.32
2018-07-17T14:18:24.249Z,979.83
2018-07-17T14:19:24.234Z,980.08
2018-07-17T14:20:24.242Z,979.89
2018-07-17T14:21:24.269Z,980.19
2018-07-17T14:22:24.276Z,979.9
2018-07-17T14:23:24.258Z,979.59
2018-07-17T14:24:24.242Z,979.85
2018-07-17T14:25:24.253Z,979.98
2018-07-17T14:26:24.511Z,979.6
2018-07-17T14:27:24.261Z,979.33
2018-07-17T14:28:24.272Z,979.75
2018-07-17T14:29:24.249Z,979.16
2018-07-17T14:30:24.283Z,979.64
2018-07-17T14:31:24.292Z,979.23
2018-07-17T14:32:24.262Z,979.35
2018-07-17T14:33:24.251Z,978.96
2018-07-17T14:34:24.286Z,979.15
2018-07-17T14:35:24.264Z,979.26
2018-07-17T14:36:24.273Z,979.35
2018-07-17T14:37:24.311Z,978.89
2018-07-17T14:38:24.304Z,979.01
2018-07-17T14:39:24.261Z,978.98
2018-07-17T14:40:24.293Z,978.97
2018-07-17T14:41:24.390Z,978.97
2018-07-17T14:42:24.348Z,978.99
2018-07-17T14:43:24.284Z,978.95
2018-07-17T14:44:24.319Z,978.82
2018-07-17T14:45:24.289Z,978.61
2018-07-17T14:46:24.306Z,978.91
2018-07-17T14:47:24.290Z,978.92
2018-07-17T14:48:24.415Z,978.56
2018-07-17T14:49:24.285Z,978.62
2018-07-17T14:50:24.279Z,978.52
2018-07-17T14:51:24.364Z,978.64
2018-07-17T14:52:24.321Z,978.4
2018-07-17T14:53:24.301Z,978.54
2018-07-17T14:54:24.307Z,978.27
2018-07-17T14:55:24.344Z,978.42
2018-07-17T14:56:24.325Z,978.11
2018-07-17T14:57:24.354Z,978.24
2018-07-17T14:58:24.332Z,978.35
2018-07-17T14:59:24.311Z,978.26
2018-07-17T15:00:24.299Z,978.19
2018-07-17T15:01:24.342Z,977.86
2018-07-17T15:02:24.345Z,977.97
2018-07-17T15:03:24.320Z,977.8
2018-07-17T15:04:24.350Z,978.02
2018-07-17T15:05:24.308Z,978.08
2018-07-17T15:06:24.313Z,978.08
2018-07-17T15:07:24.347Z,977.99
2018-07-17T15:08:24.379Z,978.02
2018-07-17T15:09:24.360Z,977.81
2018-07-17T15:10:24.355Z,977.75
2018-07-17T15:11:24.341Z,977.89
2018-07-17T15:12:24.344Z,977.88
2018-07-17T15:13:24.334Z,977.83
2018-07-17T15:14:24.362Z,977.71
2018-07-17T15:15:24.365Z,977.69
2018-07-17T15:16:24.345Z,977.78
2018-07-17T15:17:24.351Z,977.78
2018-07-17T15:18:24.362Z,977.51
2018-07-17T15:19:24.342Z,977.43
2018-07-17T15:20:24.347Z,977.22
2018-07-17T15:21:24.354Z,977.09
2018-07-17T15:22:24.346Z,976.88
2018-07-17T15:23:24.347Z,976.89
2018-07-17T15:24:24.352Z,976.65
2018-07-17T15:25:24.387Z,976.88
2018-07-17T15:26:24.357Z,976.89
2018-07-17T15:27:24.366Z,976.36
2018-07-17T15:28:24.380Z,976.23
2018-07-17T15:29:24.384Z,976.54
2018-07-17T15:30:24.411Z,976.34
2018-07-17T15:31:24.380Z,976.36
2018-07-17T15:32:24.382Z,976.3
2018-07-17T15:33:24.411Z,976.15
2018-07-17T15:34:24.396Z,975.98
2018-07-17T15:35:24.382Z,976.11
2018-07-17T15:36:24.428Z,975.99
2018-07-17T15:37:24.384Z,975.41
2018-07-17T15:38:24.376Z,975.03
2018-07-17T15:39:24.374Z,975.16
2018-07-17T15:40:24.389Z,975.14
2018-07-17T15:41:24.387Z,974.99
2018-07-17T15:42:24.398Z,975.14
2018-07-17T15:43:24.392Z,974.92
2018-07-17T15:44:24.381Z,974.6
2018-07-17T15:45:24.461Z,974.56
2018-07-17T15:46:25.186Z,974.38
2018-07-17T15:47:24.396Z,974.48
2018-07-17T15:48:24.439Z,974.37
2018-07-17T15:49:24.484Z,974.04
2018-07-17T15:50:24.410Z,974.03
2018-07-17T15:51:24.403Z,974.17
2018-07-17T15:52:24.407Z,973.53
2018-07-17T15:53:24.413Z,973.31
2018-07-17T15:54:24.449Z,973.25
2018-07-17T15:55:24.403Z,973.44
2018-07-17T15:56:24.403Z,973.28
2018-07-17T15:57:24.448Z,973.4
2018-07-17T15:58:24.422Z,973.4
2018-07-17T15:59:24.403Z,973.18
2018-07-17T16:00:24.435Z,972.99
2018-07-17T16:07:00.605Z,973.3
2018-07-17T16:07:12.079Z,972.96
2018-07-17T16:08:12.049Z,972.84
2018-07-17T16:09:12.027Z,973.15
2018-07-17T16:10:12.034Z,972.83
2018-07-17T16:11:12.057Z,973.06
2018-07-17T16:12:12.064Z,972.85
2018-07-17T16:13:12.066Z,973.07
2018-07-17T16:14:12.543Z,972.75
2018-07-17T16:15:12.076Z,973.15
2018-07-17T16:16:12.062Z,972.83
2018-07-17T16:17:12.060Z,972.81
2018-07-17T16:18:12.090Z,972.8
2018-07-17T16:19:12.065Z,972.94
2018-07-17T16:20:12.086Z,972.77
2018-07-17T16:21:12.098Z,972.77
2018-07-17T16:22:12.080Z,972.48
2018-07-17T16:23:12.059Z,972.91
2018-07-17T16:24:12.080Z,972.67
2018-07-17T16:25:12.044Z,973.06
2018-07-17T16:26:12.979Z,972.95
2018-07-17T16:27:12.108Z,973.01
2018-07-17T16:28:12.093Z,972.87
2018-07-17T16:29:12.069Z,972.98
2018-07-17T16:30:12.109Z,973.08
2018-07-17T16:31:12.136Z,972.77
2018-07-17T16:32:12.168Z,972.76
2018-07-17T16:33:12.104Z,972.85
2018-07-17T16:34:12.080Z,972.93
2018-07-17T16:35:12.099Z,972.93
2018-07-17T16:36:12.106Z,972.93
2018-07-17T16:37:12.096Z,972.88
2018-07-17T16:38:12.087Z,972.85
2018-07-17T16:39:12.115Z,972.91
2018-07-17T16:40:12.100Z,972.71
2018-07-17T16:41:12.099Z,972.98
2018-07-17T16:42:12.171Z,973.09
2018-07-17T16:43:12.140Z,973.07
2018-07-17T16:44:12.097Z,973.3
2018-07-17T16:45:12.101Z,973.01
2018-07-17T16:46:12.108Z,973.24
2018-07-17T16:47:12.217Z,973.21
2018-07-17T16:48:13.845Z,973.52
2018-07-17T16:49:12.095Z,973.09
2018-07-17T16:50:12.745Z,973.32
2018-07-17T16:51:12.163Z,973.11
2018-07-17T16:52:12.143Z,973.54
2018-07-17T16:53:12.838Z,973
2018-07-17T16:54:12.222Z,973.21
2018-07-17T16:55:12.123Z,973.33
2018-07-17T16:56:12.199Z,972.89
2018-07-17T16:57:12.182Z,973.03
2018-07-17T16:58:13.332Z,973.03
2018-07-17T16:59:12.166Z,973.13
2018-07-17T17:00:12.983Z,973.32
2018-07-17T17:01:12.417Z,972.96
2018-07-17T17:02:12.141Z,973.17
2018-07-17T17:03:12.171Z,973.19
2018-07-17T17:04:13.146Z,973.1
2018-07-17T17:05:12.178Z,973.49
2018-07-17T17:06:12.189Z,973.32
2018-07-17T17:07:12.175Z,973.31
2018-07-17T17:08:12.145Z,973.32
2018-07-17T17:09:12.179Z,973.21
2018-07-17T17:10:12.147Z,973.6
2018-07-17T17:11:12.180Z,973.51
2018-07-17T17:12:12.175Z,973.53
2018-07-17T17:13:12.178Z,973.44
2018-07-17T17:14:12.171Z,973.33
2018-07-17T17:15:12.224Z,973.82
2018-07-17T17:16:12.738Z,973.43
2018-07-17T17:17:12.203Z,973.75
2018-07-17T17:18:12.187Z,973.38
2018-07-17T17:19:12.227Z,973.86
2018-07-17T17:23:41.733Z,973.87
2018-07-17T17:24:41.772Z,974.34
2018-07-17T17:29:10.769Z,974.3
2018-07-17T17:30:10.753Z,974.54
2018-07-17T17:31:10.731Z,974.59
2018-07-17T17:32:10.790Z,974.52
2018-07-17T17:33:10.735Z,974.59
2018-07-17T17:34:10.763Z,974.88
2018-07-17T17:35:11.467Z,974.69
2018-07-17T17:36:10.736Z,974.69
2018-07-17T17:37:10.747Z,974.67
2018-07-17T17:38:10.749Z,975.02
2018-07-17T17:39:10.747Z,974.96
2018-07-17T17:40:10.754Z,975.04
2018-07-17T17:41:10.744Z,974.73
2018-07-17T17:42:11.292Z,975.14
2018-07-17T17:43:10.801Z,975.18
2018-07-17T17:44:10.790Z,975.08
2018-07-17T17:45:10.752Z,975.07
2018-07-17T17:46:10.813Z,975.06
2018-07-17T17:47:10.768Z,975.1
2018-07-17T17:48:10.776Z,975.1
2018-07-17T17:49:10.790Z,975.03
2018-07-17T17:50:10.792Z,975.14
2018-07-17T17:51:10.819Z,975.36
2018-07-17T17:52:10.770Z,975.23
2018-07-17T17:53:10.780Z,975.31
2018-07-17T17:54:10.767Z,975.53
2018-07-17T17:55:10.781Z,975.34
2018-07-17T17:56:10.808Z,975.24
2018-07-17T17:57:10.800Z,975.71
2018-07-17T17:58:10.790Z,975.45
2018-07-17T17:59:10.794Z,975.26
2018-07-17T18:00:10.798Z,975.26
2018-07-17T18:01:10.773Z,975.5
2018-07-17T18:02:10.800Z,975.39
2018-07-17T18:03:10.790Z,975.69
2018-07-17T18:04:10.795Z,975.44
2018-07-17T18:05:10.781Z,975.02
2018-07-17T18:06:10.785Z,975.53
2018-07-17T18:07:10.823Z,975.24
2018-07-17T18:08:10.804Z,975.26
2018-07-17T18:09:10.807Z,975.38
2018-07-17T18:10:10.859Z,975.56
2018-07-17T18:11:10.830Z,975.87
2018-07-17T18:12:10.837Z,975.79
2018-07-17T18:13:10.813Z,975.42
2018-07-17T18:17:39.770Z,976.06
2018-07-17T18:18:39.684Z,975.79
2018-07-17T18:19:39.687Z,975.82
2018-07-17T18:20:39.708Z,975.91
2018-07-17T18:21:39.691Z,975.95
2018-07-17T18:22:39.759Z,975.91
2018-07-17T18:23:39.680Z,976.14
2018-07-17T18:24:39.708Z,976.03
2018-07-17T18:25:42.328Z,976.13
2018-07-17T18:26:39.710Z,976.01
2018-07-17T18:27:39.705Z,976.23
2018-07-17T18:28:39.731Z,976.23
2018-07-17T18:29:39.717Z,976.31
2018-07-17T18:30:39.722Z,976.23
2018-07-17T18:31:39.824Z,975.95
2018-07-17T18:32:39.722Z,976.33
2018-07-17T18:33:39.727Z,976.34
2018-07-17T18:34:39.703Z,976.26
2018-07-17T18:35:39.720Z,976.18
2018-07-17T18:36:39.733Z,976.17
2018-07-17T18:37:39.721Z,976.25
2018-07-17T18:38:39.750Z,976.39
2018-07-17T18:39:39.719Z,976.03
2018-07-17T18:40:39.700Z,976.13
2018-07-17T18:41:39.770Z,976.12
2018-07-17T18:42:39.735Z,976.14
2018-07-17T18:43:39.721Z,976.37
2018-07-17T18:44:39.726Z,976.36
2018-07-17T18:45:39.740Z,976.54
2018-07-17T18:46:39.750Z,976.18
2018-07-17T18:47:39.767Z,976.5
2018-07-17T18:48:39.731Z,976.18
2018-07-17T18:49:39.739Z,976.21
2018-07-17T18:50:39.741Z,976.61
2018-07-17T18:51:39.751Z,976.33
2018-07-17T18:52:39.752Z,976.45
2018-07-17T18:53:39.791Z,976.68
2018-07-17T18:54:39.749Z,976.47
2018-07-17T18:55:39.725Z,976.57
2018-07-17T18:56:39.725Z,976.55
2018-07-17T18:57:39.759Z,976.57
2018-07-17T18:58:39.850Z,976.47
2018-07-17T18:59:39.842Z,976.66
2018-07-17T19:00:39.811Z,976.49
2018-07-17T19:01:39.819Z,976.82
2018-07-17T19:02:39.830Z,976.57
2018-07-17T19:03:39.822Z,976.79
2018-07-17T19:04:39.796Z,976.83
2018-07-17T19:05:39.829Z,976.32
2018-07-17T19:06:39.771Z,976.83
2018-07-17T19:07:39.811Z,976.75
2018-07-17T19:08:39.836Z,976.91
2018-07-17T19:09:39.809Z,976.8
2018-07-17T19:10:39.825Z,977.23
2018-07-17T19:11:39.776Z,976.96
2018-07-17T19:12:39.750Z,977.2
2018-07-17T19:13:39.790Z,976.95
2018-07-17T19:14:39.891Z,977.08
2018-07-17T19:15:39.797Z,977.2
2018-07-17T19:16:39.778Z,977
2018-07-17T19:17:39.771Z,977.02
2018-07-17T19:18:39.770Z,976.95
2018-07-17T19:19:39.800Z,977.06
2018-07-17T19:20:39.780Z,977.09
2018-07-17T19:21:39.817Z,977.18
2018-07-17T19:22:39.807Z,977.08
2018-07-17T19:23:39.805Z,976.9
2018-07-17T19:24:39.922Z,977.32
2018-07-17T19:25:39.818Z,976.92
2018-07-17T19:26:39.818Z,977.12
2018-07-17T19:27:39.798Z,977.01
2018-07-17T19:28:39.817Z,976.75
2018-07-17T19:29:39.828Z,977.62
2018-07-17T19:30:39.819Z,977.46
2018-07-17T19:31:39.807Z,977.27
2018-07-17T19:32:39.835Z,977.32
2018-07-17T19:33:39.819Z,976.89
2018-07-17T19:34:39.819Z,977.24
2018-07-17T19:35:39.866Z,976.96
2018-07-17T19:36:39.816Z,977.23
2018-07-17T19:37:39.810Z,977.17
2018-07-17T19:38:39.869Z,977.26
2018-07-17T19:39:39.826Z,977.49
2018-07-17T19:40:39.866Z,977.57
2018-07-17T19:41:39.826Z,977.61
2018-07-17T19:42:39.822Z,977.78
2018-07-17T19:43:39.835Z,977.81
2018-07-17T19:44:39.840Z,977.66
2018-07-17T19:45:39.819Z,977.8
2018-07-17T19:46:39.849Z,977.84
2018-07-17T19:47:39.910Z,978.03
2018-07-17T19:48:39.859Z,978.16
2018-07-17T19:49:39.857Z,978.36
2018-07-17T19:50:39.852Z,978.28
2018-07-17T19:51:39.860Z,978.46
2018-07-17T19:52:39.887Z,978.88
2018-07-17T19:53:39.845Z,978.76
2018-07-17T19:54:39.880Z,978.57
2018-07-17T19:55:39.850Z,978.95
2018-07-17T19:56:39.868Z,979.14
2018-07-17T19:57:39.870Z,979.09
2018-07-17T19:58:39.858Z,979.43
2018-07-17T19:59:39.850Z,979.07
2018-07-17T20:00:39.836Z,979.08
2018-07-17T20:01:39.920Z,979.32
2018-07-17T20:02:39.880Z,979.72
2018-07-17T20:03:39.856Z,979.62
2018-07-17T20:04:39.872Z,979.75
2018-07-17T20:05:39.868Z,979.74
2018-07-17T20:06:39.923Z,979.88
2018-07-17T20:07:39.914Z,980.29
2018-07-17T20:08:39.968Z,979.91
2018-07-17T20:09:39.869Z,980.22
2018-07-17T20:14:08.974Z,980.54
2018-07-17T20:15:08.981Z,980.87
2018-07-17T20:16:08.946Z,980.68
2018-07-17T20:17:08.934Z,980.57
2018-07-17T20:18:09.542Z,980.8
2018-07-17T20:19:08.965Z,980.87
2018-07-17T20:23:38.513Z,981.43
2018-07-17T20:24:38.147Z,981.33
2018-07-17T20:25:37.832Z,981.24
2018-07-17T20:26:38.019Z,981.65
2018-07-17T20:27:37.896Z,981.48
2018-07-17T20:28:37.872Z,981.28
2018-07-17T20:29:37.864Z,981.1
2018-07-17T20:30:37.929Z,981.29
2018-07-17T20:31:37.897Z,981.69
2018-07-17T20:32:38.639Z,981.4
2018-07-17T20:33:37.863Z,981.51
2018-07-17T20:34:37.916Z,981.1
2018-07-17T20:35:37.963Z,981.09
2018-07-17T20:36:37.876Z,980.85
2018-07-17T20:37:37.862Z,980.37
2018-07-17T20:38:37.905Z,980.07
2018-07-17T20:39:37.874Z,979.68
2018-07-17T20:40:37.920Z,979.29
2018-07-17T20:41:37.939Z,979.25
2018-07-17T20:42:37.910Z,978.95
2018-07-17T20:43:37.924Z,978.68
2018-07-17T20:44:38.848Z,978.16
2018-07-17T20:45:38.056Z,977.96
2018-07-17T20:46:37.949Z,977.87
2018-07-17T20:47:37.943Z,977.47
2018-07-17T20:48:37.899Z,977.37
2018-07-17T20:49:38.236Z,976.99
2018-07-17T20:50:37.971Z,976.67
2018-07-17T20:51:37.953Z,976.34
2018-07-17T20:52:37.963Z,976.15
2018-07-17T20:53:37.880Z,976.25
2018-07-17T20:54:38.362Z,975.88
2018-07-17T20:55:38.123Z,975.58
2018-07-17T20:56:37.918Z,975.37
2018-07-17T20:57:37.930Z,975.44
2018-07-17T20:58:37.935Z,974.96
2018-07-17T20:59:37.891Z,975.09
2018-07-17T21:00:37.926Z,975.16
2018-07-17T21:01:37.948Z,974.88
2018-07-17T21:02:37.936Z,974.78
2018-07-17T21:03:37.948Z,974.41
2018-07-17T21:04:37.965Z,974.06
2018-07-17T21:05:37.984Z,974.12
2018-07-17T21:06:37.960Z,973.87
2018-07-17T21:07:37.968Z,974.02
2018-07-17T21:08:37.952Z,973.72
2018-07-17T21:09:37.929Z,973.62
2018-07-17T21:10:37.955Z,973.67
2018-07-17T21:11:37.993Z,973.35
2018-07-17T21:12:37.951Z,973.23
2018-07-17T21:13:37.971Z,973.12
2018-07-17T21:14:37.995Z,972.54
2018-07-17T21:15:37.942Z,972.75
2018-07-17T21:16:37.924Z,972.57
2018-07-17T21:17:37.930Z,972.18
2018-07-17T21:18:54.141Z,972.17
2018-07-17T21:19:54.128Z,971.77
2018-07-17T21:20:54.104Z,971.6
2018-07-17T21:21:54.079Z,971.72
2018-07-17T21:22:54.113Z,971.63
2018-07-17T21:23:54.102Z,971.35
2018-07-17T21:24:54.104Z,971.66
2018-07-17T21:25:54.110Z,971.17
2018-07-17T21:26:54.149Z,971.17
2018-07-17T21:27:54.102Z,970.44
2018-07-17T21:28:54.133Z,969.93
2018-07-17T21:29:54.132Z,968.96
2018-07-17T21:30:54.138Z,969.45
2018-07-17T21:31:54.125Z,968.95
2018-07-17T21:32:54.137Z,968.84
2018-07-17T21:33:54.114Z,968.97
2018-07-17T21:34:54.144Z,968.95
2018-07-17T21:35:54.158Z,968.86
2018-07-17T21:36:54.155Z,969.28
2018-07-17T21:37:54.135Z,969.07
2018-07-17T21:38:54.123Z,969.21
2018-07-17T21:39:54.129Z,969.49
2018-07-17T21:40:54.136Z,969.4
2018-07-17T21:41:54.171Z,969.8
2018-07-17T21:42:54.144Z,969.58
2018-07-17T21:43:54.118Z,969.98
2018-07-17T21:44:54.132Z,970.09
2018-07-17T21:45:54.167Z,970.36
2018-07-17T21:46:54.151Z,970.17
2018-07-17T21:47:54.173Z,970.49
2018-07-17T21:48:54.164Z,970.53
2018-07-17T21:49:54.181Z,970.64
2018-07-17T21:50:54.166Z,970.74
2018-07-17T21:51:54.150Z,970.76
2018-07-17T21:52:54.164Z,971.08
2018-07-17T21:53:54.150Z,971.1
2018-07-17T21:54:54.143Z,971.29
2018-07-17T21:55:54.180Z,971.36
2018-07-17T21:56:54.185Z,971.44
2018-07-17T21:57:54.170Z,971.64
2018-07-17T21:58:54.151Z,971.46
2018-07-17T21:59:54.176Z,971.56
2018-07-17T22:00:54.157Z,971.36
2018-07-17T22:01:54.174Z,972.02
2018-07-17T22:02:54.201Z,971.75
2018-07-17T22:03:54.206Z,971.93
2018-07-17T22:09:28.160Z,972.63
2018-07-17T22:10:28.092Z,972.48
2018-07-17T22:11:28.115Z,972.8
2018-07-17T22:12:28.051Z,973.14
2018-07-17T22:13:28.402Z,972.94
2018-07-17T22:14:28.100Z,973.17
2018-07-17T22:15:28.229Z,973.19
2018-07-17T22:16:28.111Z,973.47
2018-07-17T22:17:28.077Z,973.31
2018-07-17T22:18:28.063Z,973.59
2018-07-17T22:19:28.107Z,973.45
2018-07-17T22:20:28.078Z,973.42
2018-07-17T22:21:28.103Z,973.67
2018-07-17T22:22:28.082Z,973.42
2018-07-17T22:23:28.099Z,973.43
2018-07-17T22:24:28.103Z,973.65
2018-07-17T22:25:28.087Z,973.33
2018-07-17T22:26:28.105Z,973.53
2018-07-17T22:27:28.100Z,973.26
2018-07-17T22:28:28.137Z,973.83
2018-07-17T22:29:28.128Z,973.47
2018-07-17T22:30:28.123Z,973.48
2018-07-17T22:31:28.116Z,973.68
2018-07-17T22:32:28.139Z,973.59
2018-07-17T22:33:28.089Z,973.69
2018-07-17T22:34:28.123Z,973.7
2018-07-17T22:35:28.100Z,973.69
2018-07-17T22:36:28.136Z,973.87
2018-07-17T22:37:28.139Z,973.47
2018-07-17T22:38:28.112Z,973.77
2018-07-17T22:39:28.128Z,973.78
2018-07-17T22:40:28.112Z,973.77
2018-07-17T22:41:28.116Z,973.89
2018-07-17T22:42:28.115Z,973.97
2018-07-17T22:43:28.105Z,973.99
2018-07-17T22:44:28.125Z,974.1
2018-07-17T22:45:28.114Z,974.08
2018-07-17T22:46:28.137Z,974.09
2018-07-17T22:47:28.155Z,974.2
2018-07-17T22:49:47.360Z,974
2018-07-17T22:50:47.327Z,974.26
2018-07-17T22:51:47.373Z,974.13
2018-07-17T22:52:47.353Z,973.93
2018-07-17T22:53:47.360Z,974.03
2018-07-17T22:54:47.652Z,973.94
2018-07-17T22:55:47.331Z,974.2
2018-07-17T22:56:47.337Z,973.63
2018-07-17T22:57:47.366Z,973.54
2018-07-17T22:58:47.342Z,973.4
2018-07-17T22:59:47.357Z,973.42
2018-07-17T23:00:47.384Z,973.63
2018-07-17T23:01:47.391Z,973.44
2018-07-17T23:02:47.372Z,973.62
2018-07-17T23:03:47.374Z,973.31
2018-07-17T23:04:47.365Z,973.41
2018-07-17T23:05:47.369Z,973.69
2018-07-17T23:06:47.379Z,973.64
2018-07-17T23:07:47.385Z,973.4
2018-07-17T23:08:47.381Z,973.8
2018-07-17T23:09:47.368Z,973.59
2018-07-17T23:10:47.383Z,973.49
2018-07-17T23:11:47.376Z,973.78
2018-07-17T23:12:47.366Z,973.38
2018-07-17T23:13:47.363Z,973.27
2018-07-17T23:14:47.391Z,973.29
2018-07-17T23:15:47.373Z,973.02
2018-07-17T23:16:47.392Z,973.24
2018-07-17T23:17:47.369Z,973.27
2018-07-17T23:18:47.380Z,973.07
2018-07-17T23:19:47.404Z,973.45
2018-07-17T23:20:47.396Z,973.56
2018-07-17T23:21:47.364Z,973.18
2018-07-17T23:22:47.384Z,973.2
2018-07-17T23:23:47.379Z,973.47
2018-07-17T23:24:47.406Z,973.5
2018-07-17T23:25:47.419Z,973.45
2018-07-17T23:26:47.399Z,973.18
2018-07-17T23:27:47.427Z,973.37
2018-07-17T23:28:47.388Z,973.36
2018-07-17T23:29:47.431Z,973.2
2018-07-17T23:30:47.423Z,973.45
2018-07-17T23:31:47.436Z,973.46
2018-07-17T23:32:48.763Z,973.24
2018-07-17T23:33:47.425Z,973.75
2018-07-17T23:34:47.403Z,973.68
2018-07-17T23:35:47.407Z,973.18
2018-07-17T23:36:47.406Z,973.38
2018-07-17T23:37:47.419Z,973.36
2018-07-17T23:38:47.403Z,973.48
2018-07-17T23:39:47.412Z,973.24
2018-07-17T23:40:47.422Z,973.43
2018-07-17T23:41:47.449Z,973.58
2018-07-17T23:42:47.457Z,973.67
2018-07-17T23:43:47.434Z,973.34
2018-07-17T23:44:47.443Z,973.26
2018-07-17T23:45:47.418Z,973.26
2018-07-17T23:46:47.432Z,973.36
2018-07-17T23:47:47.465Z,973.53
2018-07-17T23:48:47.411Z,973.03
2018-07-17T23:49:47.419Z,972.84
2018-07-17T23:50:47.431Z,972.69
2018-07-17T23:51:47.440Z,972.65
2018-07-17T23:52:47.445Z,973.24
2018-07-17T23:53:47.427Z,973.23
2018-07-17T23:54:47.449Z,973.04
2018-07-17T23:55:47.428Z,973.24
2018-07-17T23:56:47.441Z,973.12
2018-07-17T23:57:47.449Z,973.34
2018-07-17T23:58:47.434Z,973.56
2018-07-17T23:59:47.457Z,973.18
